FRU weather

Manas International Airport
Bishkek, Chuy Region, Kyrgyzstan

Public forecast

Using degrees Celsius for public forecast. Weather courtesy of forecast.io.

METAR (pilot weather report)

Retrieved 2019/03/25 13:30 UTC (0 seconds ago):

UCFM 251330Z 33004MPS CAVOK 15/M01 Q1019 R26/09//95 NOSIG

TAF (pilot weather forecast)

Retrieved 2019/03/25 12:00 UTC (1 hour ago):

TAF UCFM 251039Z 2512/2612 34003G08MPS 9999 NSC TEMPO 2512/2515 22003G08MPS FM251500 12003G08MPS 5000 FU SCT050CB TEMPO 2515/2521 1500 BR FEW005 TEMPO 2521/2603 1500 BR BECMG 2605/2607 32003G08MPS 9999 NSW